sensor_id;sensor_type;location;lat;lon;timestamp;pressure;altitude;pressure_sealevel;temperature;humidity
70302;BME280;57706;56.326;43.882;2023-02-19T00:02:04;99917.47;;;-7.93;64.60
70302;BME280;57706;56.326;43.882;2023-02-19T00:04:30;99920.78;;;-7.91;64.33
70302;BME280;57706;56.326;43.882;2023-02-19T00:06:56;99913.09;;;-7.89;64.14
70302;BME280;57706;56.326;43.882;2023-02-19T00:09:21;99912.19;;;-7.88;64.17
70302;BME280;57706;56.326;43.882;2023-02-19T00:11:47;99908.69;;;-7.85;64.02
70302;BME280;57706;56.326;43.882;2023-02-19T00:14:16;99906.91;;;-7.83;63.69
70302;BME280;57706;56.326;43.882;2023-02-19T00:16:43;99910.31;;;-7.83;63.58
70302;BME280;57706;56.326;43.882;2023-02-19T00:19:13;99905.97;;;-7.81;63.44
70302;BME280;57706;56.326;43.882;2023-02-19T00:21:58;99898.28;;;-7.79;63.67
70302;BME280;57706;56.326;43.882;2023-02-19T00:24:23;99897.31;;;-7.77;63.55
70302;BME280;57706;56.326;43.882;2023-02-19T00:26:49;99901.56;;;-7.76;63.69
70302;BME280;57706;56.326;43.882;2023-02-19T00:29:18;99899.72;;;-7.72;63.48
70302;BME280;57706;56.326;43.882;2023-02-19T00:31:44;99896.38;;;-7.74;62.95
70302;BME280;57706;56.326;43.882;2023-02-19T00:34:12;99897.09;;;-7.70;63.34
70302;BME280;57706;56.326;43.882;2023-02-19T00:36:39;99891.97;;;-7.70;62.92
70302;BME280;57706;56.326;43.882;2023-02-19T00:39:06;99890.19;;;-7.68;62.50
70302;BME280;57706;56.326;43.882;2023-02-19T00:41:33;99886.81;;;-7.69;62.67
70302;BME280;57706;56.326;43.882;2023-02-19T00:44:04;99888.41;;;-7.89;63.19
70302;BME280;57706;56.326;43.882;2023-02-19T00:46:49;99886.34;;;-7.79;63.04
70302;BME280;57706;56.326;43.882;2023-02-19T00:49:20;99886.28;;;-7.77;62.74
70302;BME280;57706;56.326;43.882;2023-02-19T00:51:47;99878.44;;;-7.72;63.01
70302;BME280;57706;56.326;43.882;2023-02-19T00:54:14;99880.13;;;-7.71;62.41
70302;BME280;57706;56.326;43.882;2023-02-19T00:56:40;99880.13;;;-7.71;62.90
70302;BME280;57706;56.326;43.882;2023-02-19T00:59:06;99871.47;;;-7.67;63.06
70302;BME280;57706;56.326;43.882;2023-02-19T01:01:32;99869.69;;;-7.65;62.84
70302;BME280;57706;56.326;43.882;2023-02-19T01:03:58;99861.25;;;-7.67;62.78
70302;BME280;57706;56.326;43.882;2023-02-19T01:06:24;99864.56;;;-7.65;62.93
70302;BME280;57706;56.326;43.882;2023-02-19T01:08:50;99858.03;;;-7.72;62.72
70302;BME280;57706;56.326;43.882;2023-02-19T01:11:17;99855.16;;;-7.87;63.11
70302;BME280;57706;56.326;43.882;2023-02-19T01:13:43;99860.50;;;-7.93;63.31
70302;BME280;57706;56.326;43.882;2023-02-19T01:16:15;99850.97;;;-8.12;63.54
70302;BME280;57706;56.326;43.882;2023-02-19T01:18:41;99846.09;;;-8.18;63.90
70302;BME280;57706;56.326;43.882;2023-02-19T01:21:11;99843.06;;;-8.28;64.18
70302;BME280;57706;56.326;43.882;2023-02-19T01:23:37;99840.00;;;-8.38;64.15
70302;BME280;57706;56.326;43.882;2023-02-19T01:26:05;99840.69;;;-8.57;64.72
70302;BME280;57706;56.326;43.882;2023-02-19T01:28:31;99842.69;;;-8.65;64.86
70302;BME280;57706;56.326;43.882;2023-02-19T01:31:02;99834.16;;;-8.64;64.93
70302;BME280;57706;56.326;43.882;2023-02-19T01:33:29;99825.59;;;-8.63;64.92
70302;BME280;57706;56.326;43.882;2023-02-19T01:35:55;99835.13;;;-8.68;65.22
70302;BME280;57706;56.326;43.882;2023-02-19T01:38:20;99826.13;;;-8.78;64.91
70302;BME280;57706;56.326;43.882;2023-02-19T01:41:03;99831.16;;;-8.75;65.07
70302;BME280;57706;56.326;43.882;2023-02-19T01:43:34;99824.69;;;-8.86;65.81
70302;BME280;57706;56.326;43.882;2023-02-19T01:46:01;99824.38;;;-8.76;65.49
70302;BME280;57706;56.326;43.882;2023-02-19T01:48:34;99819.06;;;-8.70;65.10
70302;BME280;57706;56.326;43.882;2023-02-19T01:51:08;99826.81;;;-8.73;65.02
70302;BME280;57706;56.326;43.882;2023-02-19T01:53:38;99823.44;;;-8.74;64.51
70302;BME280;57706;56.326;43.882;2023-02-19T01:56:07;99817.41;;;-8.71;65.07
70302;BME280;57706;56.326;43.882;2023-02-19T01:58:34;99817.97;;;-8.63;64.95
70302;BME280;57706;56.326;43.882;2023-02-19T02:01:04;99813.00;;;-8.66;64.55
70302;BME280;57706;56.326;43.882;2023-02-19T02:03:49;99817.97;;;-8.63;64.53
70302;BME280;57706;56.326;43.882;2023-02-19T02:06:22;99819.84;;;-8.68;64.23
70302;BME280;57706;56.326;43.882;2023-02-19T02:08:54;99824.94;;;-8.68;64.74
70302;BME280;57706;56.326;43.882;2023-02-19T02:11:41;99825.94;;;-8.72;64.22
70302;BME280;57706;56.326;43.882;2023-02-19T02:14:08;99823.56;;;-8.77;63.99
70302;BME280;57706;56.326;43.882;2023-02-19T02:16:41;99817.53;;;-8.74;64.04
70302;BME280;57706;56.326;43.882;2023-02-19T02:28:00;99820.72;;;-9.20;63.91
70302;BME280;57706;56.326;43.882;2023-02-19T02:31:08;99819.91;;;-8.95;63.86
70302;BME280;57706;56.326;43.882;2023-02-19T02:33:58;99824.53;;;-8.81;63.60
70302;BME280;57706;56.326;43.882;2023-02-19T02:36:33;99818.78;;;-8.86;62.91
70302;BME280;57706;56.326;43.882;2023-02-19T02:39:02;99820.97;;;-8.75;63.19
70302;BME280;57706;56.326;43.882;2023-02-19T02:41:43;99816.28;;;-8.88;62.72
70302;BME280;57706;56.326;43.882;2023-02-19T02:44:10;99826.31;;;-8.83;63.03
70302;BME280;57706;56.326;43.882;2023-02-19T02:46:39;99823.44;;;-8.99;62.62
70302;BME280;57706;56.326;43.882;2023-02-19T02:49:20;99824.06;;;-8.92;63.15
70302;BME280;57706;56.326;43.882;2023-02-19T02:51:50;99822.38;;;-8.92;62.93
70302;BME280;57706;56.326;43.882;2023-02-19T02:54:28;99815.75;;;-8.72;62.94
70302;BME280;57706;56.326;43.882;2023-02-19T02:57:17;99819.50;;;-8.82;61.68
70302;BME280;57706;56.326;43.882;2023-02-19T02:59:54;99816.50;;;-8.70;62.03
70302;BME280;57706;56.326;43.882;2023-02-19T03:02:25;99808.53;;;-8.61;62.21
70302;BME280;57706;56.326;43.882;2023-02-19T03:05:15;99813.56;;;-8.58;61.54
70302;BME280;57706;56.326;43.882;2023-02-19T03:08:11;99806.88;;;-8.62;61.13
70302;BME280;57706;56.326;43.882;2023-02-19T03:11:03;99810.19;;;-8.60;61.36
70302;BME280;57706;56.326;43.882;2023-02-19T03:13:57;99806.22;;;-8.67;60.93
70302;BME280;57706;56.326;43.882;2023-02-19T03:16:45;99809.25;;;-8.57;61.05
70302;BME280;57706;56.326;43.882;2023-02-19T03:19:34;99806.44;;;-8.49;61.00
70302;BME280;57706;56.326;43.882;2023-02-19T03:22:11;99803.81;;;-8.48;60.58
70302;BME280;57706;56.326;43.882;2023-02-19T03:25:06;99803.63;;;-8.43;60.38
70302;BME280;57706;56.326;43.882;2023-02-19T03:27:53;99801.44;;;-8.52;60.83
70302;BME280;57706;56.326;43.882;2023-02-19T03:30:26;99799.44;;;-8.68;60.15
70302;BME280;57706;56.326;43.882;2023-02-19T03:33:02;99794.91;;;-8.83;60.40
70302;BME280;57706;56.326;43.882;2023-02-19T03:35:42;99795.16;;;-8.66;60.95
70302;BME280;57706;56.326;43.882;2023-02-19T03:38:57;99786.56;;;-8.63;60.35
70302;BME280;57706;56.326;43.882;2023-02-19T03:54:59;99789.81;;;-8.60;61.11
70302;BME280;57706;56.326;43.882;2023-02-19T03:57:44;99788.16;;;-8.61;60.44
70302;BME280;57706;56.326;43.882;2023-02-19T04:00:24;99796.19;;;-8.72;61.05
70302;BME280;57706;56.326;43.882;2023-02-19T04:03:06;99791.59;;;-8.62;60.83
70302;BME280;57706;56.326;43.882;2023-02-19T04:05:38;99790.81;;;-8.64;60.86
70302;BME280;57706;56.326;43.882;2023-02-19T04:08:15;99789.81;;;-8.60;61.54
70302;BME280;57706;56.326;43.882;2023-02-19T04:10:48;99793.69;;;-8.49;61.05
70302;BME280;57706;56.326;43.882;2023-02-19T04:13:19;99787.34;;;-8.61;60.97
70302;BME280;57706;56.326;43.882;2023-02-19T04:15:48;99777.91;;;-8.59;60.61
70302;BME280;57706;56.326;43.882;2023-02-19T04:18:17;99782.97;;;-8.58;61.09
70302;BME280;57706;56.326;43.882;2023-02-19T04:20:46;99784.31;;;-8.73;60.84
70302;BME280;57706;56.326;43.882;2023-02-19T04:23:15;99778.63;;;-8.79;61.95
70302;BME280;57706;56.326;43.882;2023-02-19T04:25:44;99784.66;;;-8.58;61.26
70302;BME280;57706;56.326;43.882;2023-02-19T04:28:13;99784.94;;;-8.42;61.01
70302;BME280;57706;56.326;43.882;2023-02-19T04:30:39;99782.69;;;-8.27;60.80
70302;BME280;57706;56.326;43.882;2023-02-19T04:33:05;99780.50;;;-8.15;60.74
70302;BME280;57706;56.326;43.882;2023-02-19T04:35:30;99764.78;;;-8.04;60.72
70302;BME280;57706;56.326;43.882;2023-02-19T04:37:56;99776.31;;;-7.93;60.11
70302;BME280;57706;56.326;43.882;2023-02-19T04:40:22;99776.78;;;-7.83;59.95
70302;BME280;57706;56.326;43.882;2023-02-19T04:42:48;99774.06;;;-7.79;59.83
70302;BME280;57706;56.326;43.882;2023-02-19T04:45:13;99776.38;;;-7.72;59.73
70302;BME280;57706;56.326;43.882;2023-02-19T04:47:57;99771.25;;;-7.72;59.57
70302;BME280;57706;56.326;43.882;2023-02-19T04:50:23;99773.44;;;-7.63;59.65
70302;BME280;57706;56.326;43.882;2023-02-19T04:52:49;99769.09;;;-7.61;59.14
70302;BME280;57706;56.326;43.882;2023-02-19T04:55:15;99762.69;;;-7.49;59.38
70302;BME280;57706;56.326;43.882;2023-02-19T04:57:41;99763.91;;;-7.58;58.83
70302;BME280;57706;56.326;43.882;2023-02-19T05:00:07;99760.06;;;-7.48;58.40
70302;BME280;57706;56.326;43.882;2023-02-19T05:02:34;99763.00;;;-7.36;58.33
70302;BME280;57706;56.326;43.882;2023-02-19T05:04:59;99755.47;;;-7.39;57.83
70302;BME280;57706;56.326;43.882;2023-02-19T05:07:25;99765.81;;;-7.22;58.29
70302;BME280;57706;56.326;43.882;2023-02-19T05:09:51;99762.75;;;-7.09;58.02
70302;BME280;57706;56.326;43.882;2023-02-19T05:12:17;99758.88;;;-6.97;57.61
70302;BME280;57706;56.326;43.882;2023-02-19T05:14:43;99759.28;;;-6.87;57.48
70302;BME280;57706;56.326;43.882;2023-02-19T05:17:09;99759.47;;;-6.71;57.18
70302;BME280;57706;56.326;43.882;2023-02-19T05:19:35;99754.63;;;-6.58;56.55
70302;BME280;57706;56.326;43.882;2023-02-19T05:22:01;99761.47;;;-6.40;56.30
70302;BME280;57706;56.326;43.882;2023-02-19T05:24:27;99756.84;;;-6.31;55.18
70302;BME280;57706;56.326;43.882;2023-02-19T05:26:54;99762.09;;;-6.34;55.78
70302;BME280;57706;56.326;43.882;2023-02-19T05:29:20;99763.59;;;-6.30;55.71
70302;BME280;57706;56.326;43.882;2023-02-19T05:31:45;99767.34;;;-6.38;55.63
70302;BME280;57706;56.326;43.882;2023-02-19T05:34:11;99767.81;;;-6.29;55.60
70302;BME280;57706;56.326;43.882;2023-02-19T05:36:37;99757.25;;;-6.22;54.91
70302;BME280;57706;56.326;43.882;2023-02-19T05:39:03;99764.63;;;-6.15;54.82
70302;BME280;57706;56.326;43.882;2023-02-19T05:41:30;99762.97;;;-5.99;54.67
70302;BME280;57706;56.326;43.882;2023-02-19T05:43:56;99761.69;;;-5.71;53.61
70302;BME280;57706;56.326;43.882;2023-02-19T05:46:24;99752.88;;;-5.47;53.34
70302;BME280;57706;56.326;43.882;2023-02-19T05:49:09;99752.31;;;-5.35;52.14
70302;BME280;57706;56.326;43.882;2023-02-19T05:51:35;99750.41;;;-5.14;52.49
70302;BME280;57706;56.326;43.882;2023-02-19T05:54:19;99749.38;;;-5.11;51.50
70302;BME280;57706;56.326;43.882;2023-02-19T05:56:45;99751.59;;;-4.87;51.55
70302;BME280;57706;56.326;43.882;2023-02-19T05:59:16;99749.66;;;-4.82;50.78
70302;BME280;57706;56.326;43.882;2023-02-19T06:01:42;99742.75;;;-4.64;50.30
70302;BME280;57706;56.326;43.882;2023-02-19T06:04:09;99743.72;;;-4.66;49.77
70302;BME280;57706;56.326;43.882;2023-02-19T06:06:35;99738.34;;;-4.95;50.66
70302;BME280;57706;56.326;43.882;2023-02-19T06:09:03;99744.41;;;-4.47;50.06
70302;BME280;57706;56.326;43.882;2023-02-19T06:11:47;99739.91;;;-3.95;48.58
70302;BME280;57706;56.326;43.882;2023-02-19T06:14:13;99741.53;;;-3.47;47.85
70302;BME280;57706;56.326;43.882;2023-02-19T06:16:39;99734.94;;;-3.37;47.32
70302;BME280;57706;56.326;43.882;2023-02-19T06:19:05;99745.63;;;-3.14;46.13
70302;BME280;57706;56.326;43.882;2023-02-19T06:21:31;99743.63;;;-3.09;45.99
70302;BME280;57706;56.326;43.882;2023-02-19T06:23:57;99739.75;;;-2.43;45.46
70302;BME280;57706;56.326;43.882;2023-02-19T06:26:24;99736.28;;;-1.87;43.95
70302;BME280;57706;56.326;43.882;2023-02-19T06:29:08;99717.78;;;-1.67;42.93
70302;BME280;57706;56.326;43.882;2023-02-19T06:31:34;99731.50;;;-1.66;43.04
70302;BME280;57706;56.326;43.882;2023-02-19T06:34:02;99723.41;;;-1.21;41.90
70302;BME280;57706;56.326;43.882;2023-02-19T06:36:28;99718.19;;;0.06;39.94
70302;BME280;57706;56.326;43.882;2023-02-19T06:38:58;99712.38;;;1.98;36.94
70302;BME280;57706;56.326;43.882;2023-02-19T06:41:24;99708.97;;;2.61;34.70
70302;BME280;57706;56.326;43.882;2023-02-19T06:43:50;99703.31;;;3.29;33.86
70302;BME280;57706;56.326;43.882;2023-02-19T06:46:16;99700.81;;;4.86;31.84
70302;BME280;57706;56.326;43.882;2023-02-19T06:48:43;99700.50;;;7.33;27.63
70302;BME280;57706;56.326;43.882;2023-02-19T06:51:14;99693.81;;;9.45;25.56
70302;BME280;57706;56.326;43.882;2023-02-19T06:53:40;99678.00;;;11.43;23.24
70302;BME280;57706;56.326;43.882;2023-02-19T06:56:33;99679.19;;;12.85;21.55
70302;BME280;57706;56.326;43.882;2023-02-19T06:59:01;99675.66;;;14.56;19.82
70302;BME280;57706;56.326;43.882;2023-02-19T07:01:29;99667.16;;;15.20;18.83
70302;BME280;57706;56.326;43.882;2023-02-19T07:03:55;99675.13;;;15.91;18.36
70302;BME280;57706;56.326;43.882;2023-02-19T07:06:23;99671.59;;;15.65;17.68
70302;BME280;57706;56.326;43.882;2023-02-19T07:08:50;99676.22;;;14.92;18.33
70302;BME280;57706;56.326;43.882;2023-02-19T07:11:16;99680.81;;;15.17;17.37
70302;BME280;57706;56.326;43.882;2023-02-19T07:13:45;99690.28;;;15.77;16.27
70302;BME280;57706;56.326;43.882;2023-02-19T07:16:11;99684.63;;;15.67;16.63
70302;BME280;57706;56.326;43.882;2023-02-19T07:18:38;99684.22;;;17.09;16.60
70302;BME280;57706;56.326;43.882;2023-02-19T07:21:06;99675.44;;;17.09;15.84
70302;BME280;57706;56.326;43.882;2023-02-19T07:23:33;99673.31;;;16.36;16.06
70302;BME280;57706;56.326;43.882;2023-02-19T07:25:59;99681.00;;;17.68;16.08
70302;BME280;57706;56.326;43.882;2023-02-19T07:28:25;99673.63;;;14.65;17.51
70302;BME280;57706;56.326;43.882;2023-02-19T07:30:51;99671.47;;;10.72;20.59
70302;BME280;57706;56.326;43.882;2023-02-19T07:33:17;99681.47;;;7.66;24.11
70302;BME280;57706;56.326;43.882;2023-02-19T07:35:47;99675.06;;;6.74;26.69
70302;BME280;57706;56.326;43.882;2023-02-19T07:38:17;99682.19;;;9.71;22.63
70302;BME280;57706;56.326;43.882;2023-02-19T07:40:54;99673.22;;;11.69;21.05
70302;BME280;57706;56.326;43.882;2023-02-19T07:43:21;99677.84;;;11.45;20.70
70302;BME280;57706;56.326;43.882;2023-02-19T07:45:47;99682.53;;;9.68;21.76
70302;BME280;57706;56.326;43.882;2023-02-19T07:48:14;99687.91;;;12.00;20.40
70302;BME280;57706;56.326;43.882;2023-02-19T07:50:39;99686.56;;;9.47;21.90
70302;BME280;57706;56.326;43.882;2023-02-19T07:53:06;99685.38;;;8.78;22.61
70302;BME280;57706;56.326;43.882;2023-02-19T07:55:32;99685.84;;;7.57;24.70
70302;BME280;57706;56.326;43.882;2023-02-19T07:57:59;99676.84;;;8.84;23.31
70302;BME280;57706;56.326;43.882;2023-02-19T08:00:26;99678.28;;;11.12;21.42
70302;BME280;57706;56.326;43.882;2023-02-19T08:02:52;99670.94;;;10.77;21.42
70302;BME280;57706;56.326;43.882;2023-02-19T08:05:29;99669.72;;;11.25;20.18
70302;BME280;57706;56.326;43.882;2023-02-19T08:07:56;99666.19;;;8.86;23.06
70302;BME280;57706;56.326;43.882;2023-02-19T08:10:22;99670.75;;;9.63;21.86
70302;BME280;57706;56.326;43.882;2023-02-19T08:13:10;99661.63;;;13.06;19.86
70302;BME280;57706;56.326;43.882;2023-02-19T08:15:52;99650.78;;;12.80;19.10
70302;BME280;57706;56.326;43.882;2023-02-19T08:18:24;99652.75;;;12.36;19.84
70302;BME280;57706;56.326;43.882;2023-02-19T08:20:50;99649.22;;;12.93;19.22
70302;BME280;57706;56.326;43.882;2023-02-19T08:23:16;99660.53;;;13.35;19.48
70302;BME280;57706;56.326;43.882;2023-02-19T08:25:43;99650.16;;;12.15;20.03
70302;BME280;57706;56.326;43.882;2023-02-19T08:28:10;99646.66;;;12.36;19.77
70302;BME280;57706;56.326;43.882;2023-02-19T08:30:37;99645.19;;;13.53;18.62
70302;BME280;57706;56.326;43.882;2023-02-19T08:33:22;99644.22;;;15.00;17.67
70302;BME280;57706;56.326;43.882;2023-02-19T08:35:47;99646.22;;;15.83;16.69
70302;BME280;57706;56.326;43.882;2023-02-19T08:38:14;99649.13;;;13.21;18.91
70302;BME280;57706;56.326;43.882;2023-02-19T08:40:43;99638.09;;;11.40;20.38
70302;BME280;57706;56.326;43.882;2023-02-19T08:43:13;99656.78;;;14.06;19.08
70302;BME280;57706;56.326;43.882;2023-02-19T08:45:42;99644.66;;;13.22;18.59
70302;BME280;57706;56.326;43.882;2023-02-19T08:48:09;99636.31;;;13.12;19.22
70302;BME280;57706;56.326;43.882;2023-02-19T08:50:36;99637.03;;;14.55;18.00
70302;BME280;57706;56.326;43.882;2023-02-19T08:53:03;99627.97;;;14.97;17.90
70302;BME280;57706;56.326;43.882;2023-02-19T08:55:29;99626.38;;;13.14;19.01
70302;BME280;57706;56.326;43.882;2023-02-19T08:57:55;99621.63;;;13.65;19.19
70302;BME280;57706;56.326;43.882;2023-02-19T09:00:21;99621.94;;;14.63;18.12
70302;BME280;57706;56.326;43.882;2023-02-19T09:02:48;99614.03;;;15.15;18.38
70302;BME280;57706;56.326;43.882;2023-02-19T09:05:14;99612.59;;;16.09;17.28
70302;BME280;57706;56.326;43.882;2023-02-19T09:07:41;99612.94;;;16.75;16.42
70302;BME280;57706;56.326;43.882;2023-02-19T09:10:07;99611.75;;;16.52;16.38
70302;BME280;57706;56.326;43.882;2023-02-19T09:12:34;99610.56;;;15.14;17.42
70302;BME280;57706;56.326;43.882;2023-02-19T09:15:00;99618.28;;;13.29;19.05
70302;BME280;57706;56.326;43.882;2023-02-19T09:17:26;99614.72;;;13.50;19.37
70302;BME280;57706;56.326;43.882;2023-02-19T09:19:52;99611.69;;;13.60;18.92
70302;BME280;57706;56.326;43.882;2023-02-19T09:22:17;99605.44;;;17.22;16.86
70302;BME280;57706;56.326;43.882;2023-02-19T09:24:44;99606.34;;;15.07;17.28
70302;BME280;57706;56.326;43.882;2023-02-19T09:27:14;99606.25;;;15.91;17.26
70302;BME280;57706;56.326;43.882;2023-02-19T09:29:41;99597.03;;;12.75;19.57
70302;BME280;57706;56.326;43.882;2023-02-19T09:32:07;99600.38;;;15.57;18.33
70302;BME280;57706;56.326;43.882;2023-02-19T09:34:33;99595.22;;;14.25;18.46
70302;BME280;57706;56.326;43.882;2023-02-19T09:36:59;99591.75;;;12.82;19.60
70302;BME280;57706;56.326;43.882;2023-02-19T09:39:24;99595.19;;;13.38;19.49
70302;BME280;57706;56.326;43.882;2023-02-19T09:41:51;99586.63;;;14.50;18.38
70302;BME280;57706;56.326;43.882;2023-02-19T09:44:28;99582.94;;;17.91;16.50
70302;BME280;57706;56.326;43.882;2023-02-19T09:46:55;99586.13;;;14.80;18.19
70302;BME280;57706;56.326;43.882;2023-02-19T09:49:34;99587.69;;;14.95;17.87
70302;BME280;57706;56.326;43.882;2023-02-19T09:52:09;99581.19;;;14.04;18.49
70302;BME280;57706;56.326;43.882;2023-02-19T09:54:38;99583.03;;;13.70;19.19
70302;BME280;57706;56.326;43.882;2023-02-19T09:57:11;99585.13;;;12.99;19.57
70302;BME280;57706;56.326;43.882;2023-02-19T09:59:48;99575.75;;;13.99;18.69
70302;BME280;57706;56.326;43.882;2023-02-19T10:02:17;99576.25;;;14.42;18.67
70302;BME280;57706;56.326;43.882;2023-02-19T10:04:45;99571.06;;;13.68;18.87
70302;BME280;57706;56.326;43.882;2023-02-19T10:07:15;99586.72;;;13.69;18.79
70302;BME280;57706;56.326;43.882;2023-02-19T10:09:45;99573.56;;;14.55;18.56
70302;BME280;57706;56.326;43.882;2023-02-19T10:12:15;99564.31;;;14.06;18.79
70302;BME280;57706;56.326;43.882;2023-02-19T10:14:48;99570.16;;;15.90;17.33
70302;BME280;57706;56.326;43.882;2023-02-19T10:17:24;99564.28;;;14.26;18.46
70302;BME280;57706;56.326;43.882;2023-02-19T10:20:18;99574.44;;;16.35;16.85
70302;BME280;57706;56.326;43.882;2023-02-19T10:22:44;99559.97;;;16.99;16.41
70302;BME280;57706;56.326;43.882;2023-02-19T10:25:15;99560.47;;;16.77;16.34
70302;BME280;57706;56.326;43.882;2023-02-19T10:27:42;99557.13;;;14.40;18.00
70302;BME280;57706;56.326;43.882;2023-02-19T10:30:21;99555.38;;;15.25;17.25
70302;BME280;57706;56.326;43.882;2023-02-19T10:33:08;99565.16;;;13.86;18.80
70302;BME280;57706;56.326;43.882;2023-02-19T10:35:36;99565.97;;;12.28;19.64
70302;BME280;57706;56.326;43.882;2023-02-19T10:38:15;99559.47;;;10.26;22.05
70302;BME280;57706;56.326;43.882;2023-02-19T10:40:44;99558.09;;;12.90;20.40
70302;BME280;57706;56.326;43.882;2023-02-19T10:43:21;99549.34;;;15.68;17.41
70302;BME280;57706;56.326;43.882;2023-02-19T10:45:56;99543.66;;;16.84;16.43
70302;BME280;57706;56.326;43.882;2023-02-19T10:48:27;99546.03;;;14.83;17.64
70302;BME280;57706;56.326;43.882;2023-02-19T10:50:59;99539.13;;;14.10;18.99
70302;BME280;57706;56.326;43.882;2023-02-19T10:53:47;99544.44;;;13.56;19.08
70302;BME280;57706;56.326;43.882;2023-02-19T10:56:15;99540.56;;;13.38;19.53
70302;BME280;57706;56.326;43.882;2023-02-19T10:58:47;99538.75;;;13.72;19.17
70302;BME280;57706;56.326;43.882;2023-02-19T11:01:23;99531.25;;;14.62;18.41
70302;BME280;57706;56.326;43.882;2023-02-19T11:04:14;99526.41;;;14.52;18.16
70302;BME280;57706;56.326;43.882;2023-02-19T11:06:40;99524.88;;;14.24;18.59
70302;BME280;57706;56.326;43.882;2023-02-19T11:11:49;99521.00;;;10.49;21.85
70302;BME280;57706;56.326;43.882;2023-02-19T11:14:18;99533.25;;;8.79;23.59
70302;BME280;57706;56.326;43.882;2023-02-19T11:16:50;99518.66;;;7.30;25.43
70302;BME280;57706;56.326;43.882;2023-02-19T11:21:48;99521.03;;;8.07;24.85
70302;BME280;57706;56.326;43.882;2023-02-19T11:24:34;99522.28;;;8.36;24.65
70302;BME280;57706;56.326;43.882;2023-02-19T11:27:05;99510.91;;;8.04;24.78
70302;BME280;57706;56.326;43.882;2023-02-19T11:29:32;99512.97;;;11.31;21.57
70302;BME280;57706;56.326;43.882;2023-02-19T11:32:22;99503.63;;;10.84;21.60
70302;BME280;57706;56.326;43.882;2023-02-19T11:34:49;99509.47;;;11.01;21.07
70302;BME280;57706;56.326;43.882;2023-02-19T11:46:01;99505.34;;;11.36;21.12
70302;BME280;57706;56.326;43.882;2023-02-19T11:48:41;99504.06;;;12.10;20.43
70302;BME280;57706;56.326;43.882;2023-02-19T11:51:15;99497.66;;;11.41;20.95
70302;BME280;57706;56.326;43.882;2023-02-19T11:53:55;99502.59;;;11.00;21.45
70302;BME280;57706;56.326;43.882;2023-02-19T11:56:34;99510.53;;;8.23;24.32
70302;BME280;57706;56.326;43.882;2023-02-19T11:59:30;99507.03;;;7.25;25.45
70302;BME280;57706;56.326;43.882;2023-02-19T12:02:33;99520.78;;;6.24;27.01
70302;BME280;57706;56.326;43.882;2023-02-19T12:08:01;99505.41;;;5.42;28.31
70302;BME280;57706;56.326;43.882;2023-02-19T12:16:04;99522.16;;;2.51;32.90
70302;BME280;57706;56.326;43.882;2023-02-19T12:21:40;99504.72;;;2.63;32.66
70302;BME280;57706;56.326;43.882;2023-02-19T12:37:02;99529.88;;;-1.96;41.74
70302;BME280;57706;56.326;43.882;2023-02-19T12:42:51;99532.09;;;-3.25;44.55
70302;BME280;57706;56.326;43.882;2023-02-19T12:45:29;99541.66;;;-3.71;45.27
70302;BME280;57706;56.326;43.882;2023-02-19T12:50:25;99541.97;;;-4.35;47.24
70302;BME280;57706;56.326;43.882;2023-02-19T12:53:00;99550.13;;;-4.59;47.57
70302;BME280;57706;56.326;43.882;2023-02-19T12:55:34;99535.06;;;-4.65;47.99
70302;BME280;57706;56.326;43.882;2023-02-19T12:58:02;99546.47;;;-4.24;47.08
70302;BME280;57706;56.326;43.882;2023-02-19T13:00:38;99547.25;;;-4.38;46.99
70302;BME280;57706;56.326;43.882;2023-02-19T13:03:27;99543.28;;;-4.75;48.14
70302;BME280;57706;56.326;43.882;2023-02-19T13:05:56;99555.13;;;-5.04;48.66
70302;BME280;57706;56.326;43.882;2023-02-19T13:08:33;99555.91;;;-5.36;49.60
70302;BME280;57706;56.326;43.882;2023-02-19T13:11:11;99558.88;;;-5.60;50.00
70302;BME280;57706;56.326;43.882;2023-02-19T13:16:14;99568.09;;;-5.73;50.60
70302;BME280;57706;56.326;43.882;2023-02-19T13:21:08;99551.31;;;-6.48;52.90
70302;BME280;57706;56.326;43.882;2023-02-19T13:23:39;99552.38;;;-7.08;54.90
70302;BME280;57706;56.326;43.882;2023-02-19T13:32:26;99544.97;;;-6.76;54.03
70302;BME280;57706;56.326;43.882;2023-02-19T13:37:48;99539.38;;;-6.84;54.82
70302;BME280;57706;56.326;43.882;2023-02-19T13:40:26;99544.56;;;-7.05;55.01
70302;BME280;57706;56.326;43.882;2023-02-19T13:42:56;99538.72;;;-7.26;55.88
70302;BME280;57706;56.326;43.882;2023-02-19T13:45:43;99543.47;;;-7.19;55.52
70302;BME280;57706;56.326;43.882;2023-02-19T13:50:49;99550.97;;;-7.54;56.75
70302;BME280;57706;56.326;43.882;2023-02-19T14:04:29;99558.19;;;-8.04;59.47
70302;BME280;57706;56.326;43.882;2023-02-19T14:12:02;99558.19;;;-8.24;60.08
70302;BME280;57706;56.326;43.882;2023-02-19T14:19:45;99548.38;;;-8.13;60.10
70302;BME280;57706;56.326;43.882;2023-02-19T14:33:44;99532.56;;;-8.00;59.90
70302;BME280;57706;56.326;43.882;2023-02-19T14:39:05;99525.78;;;-8.43;61.05
70302;BME280;57706;56.326;43.882;2023-02-19T14:41:37;99535.34;;;-8.27;60.68
70302;BME280;57706;56.326;43.882;2023-02-19T14:44:06;99542.63;;;-8.39;61.45
70302;BME280;57706;56.326;43.882;2023-02-19T14:46:43;99546.72;;;-8.55;61.91
70302;BME280;57706;56.326;43.882;2023-02-19T14:49:35;99547.00;;;-8.43;61.50
70302;BME280;57706;56.326;43.882;2023-02-19T14:52:06;99548.09;;;-8.48;61.29
70302;BME280;57706;56.326;43.882;2023-02-19T14:54:42;99544.94;;;-8.53;61.68
70302;BME280;57706;56.326;43.882;2023-02-19T14:57:32;99544.22;;;-8.16;60.75
70302;BME280;57706;56.326;43.882;2023-02-19T15:02:44;99540.19;;;-8.63;61.64
70302;BME280;57706;56.326;43.882;2023-02-19T15:05:17;99528.47;;;-8.67;62.48
70302;BME280;57706;56.326;43.882;2023-02-19T15:07:43;99537.50;;;-8.80;62.90
70302;BME280;57706;56.326;43.882;2023-02-19T15:10:12;99530.00;;;-8.63;62.16
70302;BME280;57706;56.326;43.882;2023-02-19T15:12:47;99543.78;;;-8.67;62.61
70302;BME280;57706;56.326;43.882;2023-02-19T15:15:24;99538.84;;;-8.72;62.71